Time;durP1;ratioP1;P1;durP2;ratioP2;P2;SDS_P1;SDS_P2;PMS_P1;PMS_P2;Temp;Humidity;BMP_temperature;BMP_pressure;BME280_temperature;BME280_humidity;BME280_pressure;Samples;Min_cycle;Max_cycle;Signal;HPM_P1;HPM_P2
2022/11/19 00:00:46;;;;;;;8.03;7.73;;;;;;;11.89;100.00;91884.75;5109875;28;20233;-70
2022/11/19 00:03:17;;;;;;;8.13;7.73;;;;;;;11.97;100.00;91852.63;5111076;28;20188;-70
2022/11/19 00:05:44;;;;;;;8.27;7.97;;;;;;;11.88;100.00;91865.66;5109884;28;20250;-70
2022/11/19 00:08:12;;;;;;;7.90;7.70;;;;;;;11.86;100.00;91861.81;5110483;28;20183;-71
2022/11/19 00:10:39;;;;;;;7.20;7.00;;;;;;;11.72;100.00;91854.06;5110164;28;20270;-70
2022/11/19 00:13:06;;;;;;;8.83;8.43;;;;;;;11.79;100.00;91874.56;5109778;28;20201;-71
2022/11/19 00:15:34;;;;;;;7.70;7.40;;;;;;;11.67;100.00;91864.69;5110712;28;20227;-72
2022/11/19 00:17:59;;;;;;;8.07;7.77;;;;;;;11.61;100.00;91859.88;5110450;28;20201;-71
2022/11/19 00:20:26;;;;;;;10.30;9.80;;;;;;;11.71;100.00;91870.06;5110899;28;20802;-71
2022/11/19 00:22:53;;;;;;;8.47;8.17;;;;;;;11.58;100.00;91868.31;5110480;28;20227;-71
2022/11/19 00:25:20;;;;;;;8.07;7.77;;;;;;;11.35;100.00;91868.38;5109082;28;20224;-71
2022/11/19 00:27:46;;;;;;;8.20;7.90;;;;;;;11.48;100.00;91855.50;5110934;28;20722;-72
2022/11/19 00:30:13;;;;;;;8.57;8.27;;;;;;;11.27;100.00;91850.03;5110365;28;20227;-71
2022/11/19 00:32:38;;;;;;;8.73;8.43;;;;;;;11.39;100.00;91864.06;5108553;28;20177;-71
2022/11/19 00:35:04;;;;;;;7.93;7.63;;;;;;;11.29;100.00;91853.91;5108866;28;20250;-71
2022/11/19 00:37:30;;;;;;;8.10;7.80;;;;;;;11.33;100.00;91864.53;5110129;28;20187;-71
2022/11/19 00:39:55;;;;;;;8.93;8.63;;;;;;;11.34;100.00;91845.94;5110343;28;20247;-71
2022/11/19 00:42:22;;;;;;;7.97;7.77;;;;;;;11.32;100.00;91837.63;5111457;28;20188;-70
2022/11/19 00:44:47;;;;;;;9.00;8.70;;;;;;;11.32;100.00;91849.91;5110280;28;20593;-71
2022/11/19 00:47:12;;;;;;;8.50;8.20;;;;;;;11.17;100.00;91790.97;5108728;28;20181;-71
2022/11/19 00:49:38;;;;;;;8.57;8.27;;;;;;;11.38;100.00;91849.47;5109669;28;20256;-71
2022/11/19 00:52:03;;;;;;;8.13;7.93;;;;;;;11.39;100.00;91830.09;5108737;28;20188;-71
2022/11/19 00:54:29;;;;;;;8.63;8.30;;;;;;;11.49;100.00;91830.94;5110136;28;20707;-71
2022/11/19 00:56:54;;;;;;;7.97;7.57;;;;;;;11.42;100.00;91838.41;5108983;28;20192;-71
2022/11/19 00:59:19;;;;;;;8.57;8.27;;;;;;;11.33;100.00;91828.69;5110204;28;20193;-71
2022/11/19 01:01:45;;;;;;;8.83;8.30;;;;;;;11.32;100.00;91844.69;5108979;28;20259;-71
2022/11/19 01:04:10;;;;;;;7.67;7.37;;;;;;;11.41;100.00;91840.25;5111300;28;20191;-72
2022/11/19 01:06:36;;;;;;;8.43;8.03;;;;;;;11.27;100.00;91829.91;5110357;28;20210;-71
2022/11/19 01:09:02;;;;;;;8.20;7.90;;;;;;;11.17;100.00;91827.53;5108997;28;20191;-71
2022/11/19 01:11:30;;;;;;;9.10;8.80;;;;;;;11.23;100.00;91849.88;5109648;28;20207;-71
2022/11/19 01:13:57;;;;;;;8.47;8.03;;;;;;;11.12;100.00;91822.47;5110558;28;20184;-71
2022/11/19 01:16:43;;;;;;;8.20;7.90;;;;;;;11.19;100.00;91866.47;5109878;28;20231;-71
2022/11/19 01:19:10;;;;;;;10.20;9.73;;;;;;;11.18;100.00;91857.06;5109458;28;21026;-73
2022/11/19 01:21:36;;;;;;;10.00;9.60;;;;;;;11.11;100.00;91860.09;5108696;28;20460;-71
2022/11/19 01:24:03;;;;;;;8.10;7.80;;;;;;;11.10;100.00;91855.94;5108073;28;20227;-71
2022/11/19 01:26:29;;;;;;;8.93;8.37;;;;;;;11.15;100.00;91855.06;5110224;28;20222;-70
2022/11/19 01:28:55;;;;;;;8.13;7.83;;;;;;;10.97;100.00;91845.59;5109875;28;20184;-72
2022/11/19 01:31:23;;;;;;;9.23;8.73;;;;;;;10.91;100.00;91876.25;5107429;28;20228;-71
2022/11/19 01:33:49;;;;;;;8.63;8.33;;;;;;;10.69;100.00;91884.09;5108500;28;20198;-68
2022/11/19 01:36:17;;;;;;;8.23;7.80;;;;;;;10.57;100.00;91883.84;5108508;28;20259;-69
2022/11/19 01:38:43;;;;;;;8.63;8.33;;;;;;;10.51;100.00;91885.03;5108226;28;20192;-68
2022/11/19 01:41:08;;;;;;;8.10;7.80;;;;;;;10.35;100.00;91883.06;5109292;28;20335;-68
2022/11/19 01:43:48;;;;;;;8.67;8.37;;;;;;;10.39;100.00;91897.06;5109050;28;20203;-68
2022/11/19 01:46:26;;;;;;;8.90;8.60;;;;;;;10.21;100.00;91911.03;5108642;28;20945;-68
2022/11/19 01:49:07;;;;;;;9.27;8.90;;;;;;;10.26;100.00;91893.41;5109551;28;20195;-68
2022/11/19 01:51:39;;;;;;;9.13;8.73;;;;;;;10.18;100.00;91888.13;5106977;28;20221;-68
2022/11/19 01:54:20;;;;;;;8.63;8.13;;;;;;;9.90;100.00;91830.00;5108512;28;20212;-68
2022/11/19 01:56:46;;;;;;;8.13;7.83;;;;;;;10.10;100.00;91889.56;5088098;28;20339;-69
2022/11/19 01:59:15;;;;;;;9.63;9.23;;;;;;;10.30;100.00;91877.94;5087387;28;20196;-70
2022/11/19 02:01:43;;;;;;;8.47;8.17;;;;;;;10.33;100.00;91896.41;5087614;28;20236;-70
2022/11/19 02:04:10;;;;;;;8.37;8.07;;;;;;;10.38;100.00;91888.44;5088033;28;20184;-71
2022/11/19 02:06:36;;;;;;;9.23;8.93;;;;;;;10.40;100.00;91888.16;5087569;28;20244;-70
2022/11/19 02:09:02;;;;;;;9.57;8.97;;;;;;;10.41;100.00;91880.03;5088970;28;20197;-70
2022/11/19 02:11:46;;;;;;;9.57;9.07;;;;;;;10.86;100.00;91892.03;5095827;28;20233;-68
2022/11/19 02:14:33;;;;;;;8.90;8.60;;;;;;;10.57;100.00;91877.84;5097975;28;20193;-68
2022/11/19 02:17:20;;;;;;;8.87;8.47;;;;;;;10.46;100.00;91881.78;5087733;28;20212;-69
2022/11/19 02:20:06;;;;;;;9.03;8.60;;;;;;;10.20;100.00;91863.28;5093537;28;20341;-71
2022/11/19 02:23:03;;;;;;;10.30;9.53;;;;;;;10.35;100.00;91901.31;5108944;28;20188;-71
2022/11/19 02:25:57;;;;;;;9.70;9.30;;;;;;;10.35;100.00;91922.94;5072707;28;20230;-70
2022/11/19 02:28:42;;;;;;;8.00;7.70;;;;;;;10.19;100.00;91926.19;5107958;28;20202;-71
2022/11/19 02:31:35;;;;;;;7.80;7.50;;;;;;;10.16;100.00;91901.47;5107411;28;20238;-72
2022/11/19 02:34:18;;;;;;;8.10;7.73;;;;;;;10.09;100.00;91915.94;5107645;28;20192;-69
2022/11/19 02:37:13;;;;;;;8.63;8.03;;;;;;;10.17;100.00;91929.09;5108810;28;20236;-70
2022/11/19 02:39:47;;;;;;;9.60;9.20;;;;;;;10.23;100.00;91921.91;5106429;28;20225;-68
2022/11/19 02:42:29;;;;;;;9.17;8.67;;;;;;;10.46;100.00;91941.78;5106905;28;20207;-68
2022/11/19 02:45:01;;;;;;;9.17;8.57;;;;;;;10.32;100.00;91943.66;5105144;28;20226;-68
2022/11/19 02:47:44;;;;;;;8.17;7.67;;;;;;;10.19;100.00;91945.22;5108221;28;20180;-68
2022/11/19 02:50:16;;;;;;;8.87;8.30;;;;;;;10.04;100.00;91948.09;5107585;28;20270;-69
2022/11/19 02:52:43;;;;;;;9.43;8.93;;;;;;;9.77;100.00;91955.91;5107244;28;20201;-68
2022/11/19 02:55:17;;;;;;;9.20;8.80;;;;;;;9.87;100.00;91958.31;5107619;28;20224;-68
2022/11/19 02:57:47;;;;;;;8.87;8.57;;;;;;;9.90;100.00;91946.56;5108373;28;20288;-68
2022/11/19 03:06:16;;;;;;;8.53;8.03;;;;;;;9.66;100.00;91970.19;5108107;28;20238;-68
2022/11/19 03:08:43;;;;;;;9.23;8.87;;;;;;;9.67;100.00;91984.75;5107663;28;20184;-69
2022/11/19 03:11:25;;;;;;;9.20;8.90;;;;;;;9.68;100.00;91978.50;5110203;28;20242;-68
2022/11/19 03:16:55;;;;;;;8.40;8.00;;;;;;;9.58;100.00;91960.44;5091635;28;20287;-68
2022/11/19 03:19:29;;;;;;;8.73;8.43;;;;;;;9.64;100.00;91980.91;5090192;28;20199;-67
2022/11/19 03:22:07;;;;;;;9.27;8.87;;;;;;;9.55;100.00;91981.84;5111861;28;20184;-68
2022/11/19 03:24:38;;;;;;;9.57;9.07;;;;;;;9.53;100.00;91983.97;5112396;28;20235;-68
2022/11/19 03:27:27;;;;;;;7.77;7.47;;;;;;;9.52;100.00;91992.84;5110712;28;20192;-68
2022/11/19 03:29:56;;;;;;;8.23;7.83;;;;;;;9.48;100.00;91984.81;5109748;28;20234;-68
2022/11/19 03:32:36;;;;;;;8.77;8.37;;;;;;;9.63;100.00;91973.38;5111199;28;20677;-69
2022/11/19 03:35:10;;;;;;;8.80;8.50;;;;;;;9.75;100.00;91987.47;5112072;28;20239;-68
2022/11/19 03:37:39;;;;;;;9.23;8.83;;;;;;;9.74;100.00;91993.00;5110944;28;20177;-68
2022/11/19 03:40:09;;;;;;;8.80;8.47;;;;;;;9.71;100.00;92002.13;5111412;28;20240;-68
2022/11/19 03:42:35;;;;;;;8.93;8.53;;;;;;;9.52;100.00;92003.28;5111831;28;20184;-68
2022/11/19 03:45:12;;;;;;;9.03;8.53;;;;;;;9.59;100.00;92003.66;5110634;28;20220;-69
2022/11/19 03:47:40;;;;;;;8.53;8.10;;;;;;;9.74;100.00;92009.38;5111907;28;20183;-69
2022/11/19 03:50:22;;;;;;;9.93;8.93;;;;;;;9.60;100.00;92007.81;5110948;28;20213;-68
2022/11/19 03:52:48;;;;;;;8.70;8.40;;;;;;;9.71;100.00;92014.41;5108984;28;20229;-68
2022/11/19 03:55:15;;;;;;;8.87;8.57;;;;;;;9.50;100.00;92013.19;5112244;28;20224;-67
2022/11/19 03:57:41;;;;;;;9.03;8.63;;;;;;;9.42;100.00;92013.84;5109591;28;20188;-69
2022/11/19 04:00:07;;;;;;;10.13;9.60;;;;;;;9.36;100.00;92007.97;5111459;28;20232;-68
2022/11/19 04:02:33;;;;;;;9.63;9.00;;;;;;;9.47;100.00;92018.97;5110455;28;20195;-68
2022/11/19 04:04:58;;;;;;;9.57;9.17;;;;;;;9.45;100.00;92002.84;5110725;28;20253;-68
2022/11/19 04:07:23;;;;;;;9.37;8.87;;;;;;;9.43;100.00;92028.44;5111232;28;20193;-68
2022/11/19 04:09:49;;;;;;;8.70;8.30;;;;;;;9.30;100.00;92018.72;5111682;28;20289;-68
2022/11/19 04:12:16;;;;;;;9.70;9.30;;;;;;;9.37;100.00;92026.97;5110175;28;20184;-67
2022/11/19 04:14:42;;;;;;;9.63;9.10;;;;;;;9.27;100.00;92011.50;5111969;28;20235;-69
2022/11/19 04:17:08;;;;;;;10.03;9.53;;;;;;;9.21;100.00;92017.84;5110640;28;20184;-67
2022/11/19 04:19:33;;;;;;;10.17;9.67;;;;;;;9.17;100.00;92032.47;5108613;28;20291;-68
2022/11/19 04:21:58;;;;;;;10.30;9.60;;;;;;;9.09;100.00;92053.97;5109335;28;20256;-68
2022/11/19 04:24:24;;;;;;;10.80;10.10;;;;;;;9.17;100.00;92061.13;5111800;28;20196;-68
2022/11/19 04:26:49;;;;;;;10.83;10.23;;;;;;;9.18;100.00;92029.56;5110746;28;20188;-68
2022/11/19 04:29:15;;;;;;;10.33;9.83;;;;;;;9.37;100.00;92047.81;5109458;28;20209;-68
2022/11/19 04:31:40;;;;;;;11.27;10.47;;;;;;;9.41;100.00;92054.78;5110832;28;20188;-68
2022/11/19 04:34:05;;;;;;;10.23;9.53;;;;;;;9.25;100.00;92053.44;5111068;28;20190;-68
2022/11/19 04:36:31;;;;;;;10.57;9.67;;;;;;;9.53;100.00;92068.13;5109112;28;20232;-68
2022/11/19 04:38:56;;;;;;;10.30;9.63;;;;;;;9.60;100.00;92078.19;5110567;28;20180;-68
2022/11/19 04:41:23;;;;;;;11.07;10.37;;;;;;;9.65;100.00;92072.88;5110285;28;20220;-68
2022/11/19 04:43:48;;;;;;;10.13;9.63;;;;;;;9.59;100.00;92076.63;5110903;28;20182;-68
2022/11/19 04:46:13;;;;;;;10.60;10.00;;;;;;;9.53;100.00;92072.56;5109882;28;20280;-68
2022/11/19 04:48:39;;;;;;;9.43;8.93;;;;;;;9.49;100.00;92074.94;5109659;28;20243;-67
2022/11/19 04:51:04;;;;;;;9.10;8.60;;;;;;;9.50;100.00;92073.13;5109317;28;20251;-68
2022/11/19 04:53:29;;;;;;;9.83;9.33;;;;;;;9.47;100.00;92084.09;5111552;28;20199;-68
2022/11/19 04:55:55;;;;;;;10.00;9.40;;;;;;;9.50;100.00;92078.34;5108688;28;20234;-68
2022/11/19 04:58:20;;;;;;;9.43;8.93;;;;;;;9.45;100.00;92086.22;5109245;28;20234;-68
2022/11/19 05:00:47;;;;;;;9.43;9.03;;;;;;;9.32;100.00;92077.28;5110240;28;20240;-69
2022/11/19 05:03:12;;;;;;;9.10;8.70;;;;;;;9.27;100.00;92089.63;5110387;28;20188;-68
2022/11/19 05:05:37;;;;;;;10.30;9.70;;;;;;;9.34;100.00;92092.63;5109975;28;20258;-68
2022/11/19 05:08:03;;;;;;;9.23;8.73;;;;;;;9.15;100.00;92104.91;5110713;28;20204;-69
2022/11/19 05:10:28;;;;;;;9.73;9.20;;;;;;;9.13;100.00;92114.81;5107768;28;20233;-68
2022/11/19 05:12:54;;;;;;;9.93;9.43;;;;;;;9.02;100.00;92113.41;5110465;28;20192;-68
2022/11/19 05:15:19;;;;;;;10.40;9.90;;;;;;;9.02;100.00;92129.03;5109251;28;20234;-68
2022/11/19 05:17:44;;;;;;;10.83;9.90;;;;;;;9.01;100.00;92132.69;5111072;28;20199;-68
2022/11/19 05:20:10;;;;;;;10.30;9.73;;;;;;;9.03;100.00;92146.97;5109298;28;20230;-67
2022/11/19 05:22:36;;;;;;;10.10;9.37;;;;;;;8.86;100.00;92120.63;5109767;28;20172;-68
2022/11/19 05:25:01;;;;;;;10.13;9.47;;;;;;;8.99;100.00;92159.00;5110139;28;20263;-68
2022/11/19 05:27:27;;;;;;;11.43;10.73;;;;;;;9.02;100.00;92175.88;5109712;28;20187;-68
2022/11/19 05:29:52;;;;;;;9.67;8.97;;;;;;;9.06;100.00;92177.66;5109521;28;20307;-67
2022/11/19 05:32:17;;;;;;;11.27;10.30;;;;;;;9.20;100.00;92185.53;5107183;28;20197;-68
2022/11/19 05:34:43;;;;;;;11.17;10.57;;;;;;;9.23;100.00;92192.81;5109621;28;20224;-66
2022/11/19 05:37:08;;;;;;;12.17;11.37;;;;;;;9.19;100.00;92191.81;5103310;28;20184;-68
2022/11/19 05:39:34;;;;;;;11.03;10.33;;;;;;;9.33;100.00;92190.88;5107802;28;20212;-68
2022/11/19 05:41:59;;;;;;;10.73;10.07;;;;;;;9.25;100.00;92194.09;5110013;28;20187;-68
2022/11/19 05:44:25;;;;;;;11.20;10.50;;;;;;;9.28;100.00;92201.34;5107346;28;20252;-69
2022/11/19 05:46:50;;;;;;;9.97;9.37;;;;;;;9.40;100.00;92209.50;5108583;28;20176;-67
2022/11/19 05:49:15;;;;;;;11.00;10.40;;;;;;;9.37;100.00;92204.09;5107869;28;20196;-69
2022/11/19 05:51:41;;;;;;;10.67;10.13;;;;;;;9.40;100.00;92213.97;5108271;28;20188;-68
2022/11/19 05:54:06;;;;;;;9.30;8.80;;;;;;;9.39;100.00;92223.59;5109203;28;20184;-66
2022/11/19 05:56:32;;;;;;;9.97;9.47;;;;;;;9.37;100.00;92217.13;5107629;28;20208;-68
2022/11/19 05:58:57;;;;;;;10.23;9.63;;;;;;;9.33;100.00;92218.72;5108745;28;20192;-68
2022/11/19 06:01:27;;;;;;;11.43;10.73;;;;;;;9.31;100.00;92210.41;5108870;28;20227;-68
2022/11/19 06:03:53;;;;;;;10.17;9.67;;;;;;;9.46;100.00;92218.06;5108669;28;20184;-68
2022/11/19 06:06:18;;;;;;;10.57;10.00;;;;;;;9.33;100.00;92203.09;5110104;28;20283;-68
2022/11/19 06:08:44;;;;;;;10.63;10.03;;;;;;;9.48;100.00;92215.91;5107938;28;20206;-68
2022/11/19 06:11:46;;;;;;;9.87;9.27;;;;;;;9.34;100.00;92209.84;5109059;28;20232;-68
2022/11/19 06:13:58;;;;;;;10.10;9.43;;;;;;;9.40;100.00;92232.19;5108330;28;20196;-68
2022/11/19 06:16:23;;;;;;;11.17;10.47;;;;;;;9.33;100.00;92239.56;5107313;28;20239;-68
2022/11/19 06:18:49;;;;;;;10.00;9.50;;;;;;;9.39;100.00;92247.03;5111040;28;20255;-68
2022/11/19 06:21:14;;;;;;;10.70;10.03;;;;;;;9.29;100.00;92252.38;5107710;28;20729;-69
2022/11/19 06:23:40;;;;;;;9.03;8.63;;;;;;;9.24;100.00;92259.47;5108406;28;20184;-69
2022/11/19 06:26:07;;;;;;;9.47;9.03;;;;;;;9.28;100.00;92268.28;5109277;28;20217;-68
2022/11/19 06:28:32;;;;;;;9.93;9.43;;;;;;;9.45;100.00;92279.00;5107613;28;20195;-68
2022/11/19 06:30:58;;;;;;;10.50;10.00;;;;;;;9.37;100.00;92284.88;5108409;28;20224;-68
2022/11/19 06:33:23;;;;;;;9.97;9.43;;;;;;;9.53;100.00;92286.22;5109232;28;20199;-66
2022/11/19 06:35:49;;;;;;;9.90;9.40;;;;;;;9.62;100.00;92284.53;5110065;28;20231;-66
2022/11/19 06:38:15;;;;;;;9.60;9.13;;;;;;;9.69;100.00;92287.56;5107547;28;20203;-69
2022/11/19 06:40:40;;;;;;;9.87;9.47;;;;;;;9.68;100.00;92299.81;5107885;28;20292;-67
2022/11/19 06:43:05;;;;;;;10.20;9.30;;;;;;;9.70;100.00;92291.72;5108247;28;20180;-68
2022/11/19 06:45:31;;;;;;;11.00;10.10;;;;;;;9.73;100.00;92298.97;5106586;28;20776;-69
2022/11/19 06:47:56;;;;;;;9.57;9.07;;;;;;;9.91;100.00;92308.66;5106301;28;20187;-71
2022/11/19 06:50:21;;;;;;;9.90;9.40;;;;;;;9.82;100.00;92305.91;5107471;28;20221;-70
2022/11/19 06:52:47;;;;;;;10.53;10.03;;;;;;;9.76;100.00;92291.38;5107532;28;20217;-70
2022/11/19 06:55:13;;;;;;;9.97;9.43;;;;;;;9.82;100.00;92301.75;5107737;28;20232;-71
2022/11/19 06:57:38;;;;;;;10.90;10.10;;;;;;;9.69;100.00;92292.78;5108228;28;20202;-69
2022/11/19 07:00:04;;;;;;;11.80;11.00;;;;;;;9.94;100.00;92321.16;5107184;28;20285;-69
2022/11/19 07:02:29;;;;;;;12.20;11.40;;;;;;;10.03;100.00;92327.28;5107093;28;20195;-69
2022/11/19 07:04:55;;;;;;;13.83;12.73;;;;;;;10.07;100.00;92324.88;5104184;28;20283;-70
2022/11/19 07:07:20;;;;;;;13.97;12.73;;;;;;;10.02;100.00;92340.59;5108035;28;20174;-68
2022/11/19 07:09:46;;;;;;;12.47;11.63;;;;;;;10.01;100.00;92334.59;5106970;28;20228;-70
2022/11/19 07:12:11;;;;;;;14.20;13.00;;;;;;;10.12;100.00;92338.66;5106503;28;20191;-72
2022/11/19 07:14:36;;;;;;;13.33;12.33;;;;;;;10.24;100.00;92343.47;5107706;28;20236;-72
2022/11/19 07:17:02;;;;;;;12.80;11.80;;;;;;;10.26;100.00;92326.44;5107776;28;21275;-71
2022/11/19 07:19:28;;;;;;;11.90;11.10;;;;;;;10.33;100.00;92332.09;5105763;28;20210;-72
2022/11/19 07:21:53;;;;;;;10.80;10.20;;;;;;;10.37;100.00;92332.28;5106219;28;20189;-71
2022/11/19 07:24:19;;;;;;;12.27;11.47;;;;;;;10.33;100.00;92326.88;5107548;28;20731;-71
2022/11/19 07:26:44;;;;;;;11.50;10.77;;;;;;;10.41;100.00;92323.59;5107269;28;20185;-70
2022/11/19 07:29:13;;;;;;;11.77;10.83;;;;;;;10.57;100.00;92324.16;5107316;28;20259;-71
2022/11/19 07:31:38;;;;;;;11.83;10.93;;;;;;;10.69;100.00;92325.25;5106848;28;20184;-71
2022/11/19 07:34:08;;;;;;;11.90;11.00;;;;;;;10.86;100.00;92315.06;5108233;28;20196;-72
2022/11/19 07:36:34;;;;;;;11.43;10.57;;;;;;;10.86;100.00;92315.06;5107691;28;20228;-71
2022/11/19 07:38:59;;;;;;;10.80;10.20;;;;;;;11.12;100.00;92334.47;5106634;28;20198;-72
2022/11/19 07:44:09;;;;;;;12.63;11.63;;;;;;;11.60;100.00;92339.34;5105518;28;20210;-72
2022/11/19 07:46:34;;;;;;;12.40;11.13;;;;;;;11.59;100.00;92338.59;5105661;28;20190;-67
2022/11/19 07:48:59;;;;;;;10.40;9.80;;;;;;;11.65;100.00;92350.53;5105635;28;20219;-72
2022/11/19 07:51:25;;;;;;;10.87;9.90;;;;;;;11.69;100.00;92332.44;5106584;28;20235;-70
2022/11/19 07:53:51;;;;;;;10.27;9.57;;;;;;;11.62;100.00;92352.91;5106643;28;20185;-70
2022/11/19 07:56:17;;;;;;;10.10;9.47;;;;;;;11.64;100.00;92356.84;5105796;28;20220;-70
2022/11/19 07:58:42;;;;;;;10.80;10.00;;;;;;;11.74;100.00;92350.59;5112510;28;20175;-69
2022/11/19 08:01:16;;;;;;;10.33;9.60;;;;;;;11.72;100.00;92342.28;5109348;28;20946;-69
2022/11/19 08:03:41;;;;;;;9.17;8.67;;;;;;;11.81;100.00;92366.69;5109634;28;20199;-70
2022/11/19 08:06:07;;;;;;;11.53;10.43;;;;;;;11.81;100.00;92372.72;5110550;28;20216;-69
2022/11/19 08:08:33;;;;;;;10.83;9.90;;;;;;;12.08;100.00;92372.69;5107426;28;20179;-70
2022/11/19 08:11:06;;;;;;;9.50;8.90;;;;;;;12.32;100.00;92370.63;5109844;28;20216;-71
2022/11/19 08:13:32;;;;;;;9.07;8.60;;;;;;;12.17;100.00;92375.38;5110848;28;20243;-69
2022/11/19 08:16:02;;;;;;;9.77;9.07;;;;;;;12.13;100.00;92364.72;5111094;28;20341;-70
2022/11/19 08:18:28;;;;;;;9.50;8.80;;;;;;;12.43;100.00;92379.03;5111816;28;20216;-70
2022/11/19 08:20:53;;;;;;;8.67;8.27;;;;;;;12.54;100.00;92369.88;5110029;28;20227;-70
2022/11/19 08:23:19;;;;;;;10.13;9.53;;;;;;;12.38;100.00;92379.13;5112064;28;20192;-69
2022/11/19 08:25:44;;;;;;;10.83;10.13;;;;;;;12.36;100.00;92379.41;5111009;28;20231;-69
2022/11/19 08:28:10;;;;;;;9.57;9.07;;;;;;;12.59;100.00;92398.56;5111244;28;20249;-70
2022/11/19 08:30:39;;;;;;;9.47;8.83;;;;;;;12.72;96.33;92347.97;5110282;28;20220;-69
2022/11/19 08:33:05;;;;;;;10.03;9.53;;;;;;;12.70;98.53;92384.19;5110901;28;20229;-69
2022/11/19 08:35:31;;;;;;;9.93;9.33;;;;;;;12.41;98.77;92383.75;5110813;28;20239;-71
2022/11/19 08:37:57;;;;;;;9.77;9.10;;;;;;;12.63;99.78;92396.91;5110311;28;21162;-69
2022/11/19 08:40:23;;;;;;;10.90;10.20;;;;;;;12.81;96.28;92390.72;5110259;28;20216;-69
2022/11/19 08:43:01;;;;;;;11.50;10.60;;;;;;;12.64;98.27;92374.88;5108947;28;20259;-69
2022/11/19 08:45:37;;;;;;;11.13;10.33;;;;;;;12.78;97.55;92373.75;5109835;28;20228;-68
2022/11/19 08:48:05;;;;;;;10.70;10.10;;;;;;;13.23;93.66;92392.13;5109759;28;20211;-69
2022/11/19 08:50:32;;;;;;;9.83;9.10;;;;;;;13.03;95.56;92382.16;5109596;28;20233;-69
2022/11/19 08:53:02;;;;;;;10.07;9.47;;;;;;;13.10;95.32;92392.97;5108015;28;20184;-69
2022/11/19 08:55:29;;;;;;;10.93;10.23;;;;;;;13.05;97.27;92379.97;5107502;28;20243;-69
2022/11/19 08:58:06;;;;;;;8.83;8.43;;;;;;;12.97;98.49;92389.31;5107139;28;20196;-69
2022/11/19 09:00:33;;;;;;;9.60;9.07;;;;;;;13.14;96.61;92393.91;5108919;28;20300;-72
2022/11/19 09:02:59;;;;;;;9.33;8.80;;;;;;;13.13;94.76;92413.34;5110685;28;20188;-70
2022/11/19 09:05:24;;;;;;;9.60;9.10;;;;;;;13.22;95.09;92412.31;5109147;28;20292;-70
2022/11/19 09:07:50;;;;;;;8.83;8.43;;;;;;;13.45;94.30;92400.75;5109040;28;20190;-68
2022/11/19 09:10:16;;;;;;;9.70;9.20;;;;;;;13.09;94.31;92407.16;5108162;28;20731;-69
2022/11/19 09:12:42;;;;;;;9.53;9.03;;;;;;;13.25;94.47;92418.81;5109927;28;20200;-69
2022/11/19 09:15:08;;;;;;;9.00;8.40;;;;;;;13.47;91.92;92411.72;5109867;28;20232;-69
2022/11/19 09:17:34;;;;;;;10.13;9.63;;;;;;;13.10;93.57;92425.22;5109269;28;20219;-69
2022/11/19 09:19:59;;;;;;;9.20;8.67;;;;;;;13.50;91.44;92408.50;5108390;28;20239;-71
2022/11/19 09:22:24;;;;;;;8.87;8.47;;;;;;;13.14;92.87;92415.66;5109852;28;20188;-71
2022/11/19 09:24:50;;;;;;;8.33;8.03;;;;;;;13.01;93.50;92424.38;5109647;28;20254;-72
2022/11/19 09:27:15;;;;;;;10.40;9.50;;;;;;;13.20;93.07;92403.22;5109929;28;20199;-72
2022/11/19 09:29:41;;;;;;;8.80;8.30;;;;;;;13.49;90.46;92417.44;5108243;28;20283;-72
2022/11/19 09:32:06;;;;;;;9.17;8.53;;;;;;;13.69;89.71;92409.06;5109442;28;20202;-71
2022/11/19 09:34:33;;;;;;;9.63;8.70;;;;;;;13.61;88.60;92398.50;5109359;28;20227;-72
2022/11/19 09:36:59;;;;;;;9.30;8.80;;;;;;;13.40;89.22;92390.38;5106237;28;20206;-73
2022/11/19 09:39:24;;;;;;;9.53;9.03;;;;;;;13.35;90.94;92387.13;5108730;28;20200;-72
2022/11/19 09:42:21;;;;;;;9.20;8.60;;;;;;;13.57;88.32;92390.47;5110106;28;20184;-72
2022/11/19 09:44:47;;;;;;;8.67;8.17;;;;;;;13.67;89.69;92392.84;5109804;28;20235;-73
2022/11/19 09:47:30;;;;;;;9.13;8.73;;;;;;;13.77;86.82;92387.34;5110047;28;20191;-72
2022/11/19 09:49:58;;;;;;;9.07;8.67;;;;;;;13.46;87.93;92391.81;5108453;28;20239;-72
2022/11/19 09:52:27;;;;;;;8.73;8.33;;;;;;;13.81;87.26;92356.00;5108594;28;20200;-74
2022/11/19 09:54:55;;;;;;;8.43;8.03;;;;;;;13.97;86.37;92350.03;5107616;28;20227;-72
2022/11/19 09:57:35;;;;;;;9.90;9.40;;;;;;;14.15;83.79;92356.88;5106867;28;20188;-68
2022/11/19 10:00:03;;;;;;;9.13;8.63;;;;;;;14.02;85.17;92352.50;5107689;28;20280;-69
2022/11/19 10:02:29;;;;;;;9.00;8.30;;;;;;;14.05;86.35;92351.94;5108935;28;20282;-69
2022/11/19 10:04:54;;;;;;;8.83;8.33;;;;;;;14.41;84.48;92355.09;5108087;28;20223;-68
2022/11/19 10:07:29;;;;;;;10.30;9.70;;;;;;;14.46;83.63;92364.66;5108913;28;20192;-69
2022/11/19 10:10:01;;;;;;;9.20;8.80;;;;;;;14.61;81.81;92352.94;5107555;28;20246;-70
2022/11/19 10:12:39;;;;;;;8.70;8.30;;;;;;;14.37;83.41;92345.50;5105048;28;20175;-69
2022/11/19 10:15:19;;;;;;;9.43;8.93;;;;;;;14.63;83.63;92340.28;5106971;28;20232;-70
2022/11/19 10:17:55;;;;;;;7.90;7.60;;;;;;;14.61;81.23;92339.81;5106198;28;20260;-70
2022/11/19 10:20:42;;;;;;;8.80;8.37;;;;;;;14.65;81.59;92338.88;5107591;28;20255;-69
2022/11/19 10:23:59;;;;;;;9.17;8.77;;;;;;;14.91;80.85;92344.13;5108320;28;20195;-71
2022/11/19 10:26:40;;;;;;;11.80;11.10;;;;;;;14.77;85.14;92356.66;5089158;28;20246;-70
2022/11/19 10:29:21;;;;;;;11.50;10.73;;;;;;;14.53;82.41;92338.72;5107752;28;20196;-69
2022/11/19 10:31:49;;;;;;;8.67;8.27;;;;;;;14.85;81.59;92348.00;5107718;28;20204;-70
2022/11/19 10:34:28;;;;;;;9.33;8.93;;;;;;;14.98;78.69;92321.56;5106462;28;20191;-70
2022/11/19 10:37:02;;;;;;;10.60;9.80;;;;;;;14.96;78.74;92333.47;5095725;28;20219;-70
2022/11/19 10:39:37;;;;;;;10.37;9.77;;;;;;;14.93;78.54;92341.94;5096199;28;20188;-70
2022/11/19 10:42:05;;;;;;;10.57;10.10;;;;;;;14.66;79.00;92334.41;5098539;28;20263;-70
2022/11/19 10:44:47;;;;;;;9.57;9.17;;;;;;;14.67;78.49;92297.31;5094924;28;20333;-69
2022/11/19 10:47:21;;;;;;;10.33;9.30;;;;;;;15.24;77.95;92334.63;5085393;28;20200;-70
2022/11/19 10:49:52;;;;;;;11.43;10.93;;;;;;;15.31;76.47;92340.97;5090368;28;20234;-71
2022/11/19 10:52:29;;;;;;;9.30;8.90;;;;;;;15.12;77.85;92297.69;5106746;28;20195;-72
2022/11/19 10:55:18;;;;;;;9.03;8.63;;;;;;;15.25;76.51;92325.69;5107249;28;20239;-71
2022/11/19 10:57:45;;;;;;;9.17;8.60;;;;;;;14.99;79.73;92317.81;5104351;28;20204;-70
2022/11/19 11:00:11;;;;;;;9.17;8.47;;;;;;;14.75;80.90;92322.81;5106323;28;20220;-69
2022/11/19 11:02:51;;;;;;;11.40;10.80;;;;;;;15.22;78.96;92328.94;5108608;28;20251;-71
2022/11/19 11:05:17;;;;;;;8.43;8.03;;;;;;;15.35;78.79;92320.06;5109225;28;21070;-70
2022/11/19 11:07:54;;;;;;;9.23;8.80;;;;;;;15.36;77.07;92316.38;5106290;28;20191;-73
2022/11/19 11:10:42;;;;;;;8.73;8.27;;;;;;;15.54;76.96;92317.88;5098195;28;20644;-70
2022/11/19 11:16:42;;;;;;;9.30;8.60;;;;;;;15.61;75.80;92318.94;5106609;28;21716;-74
2022/11/19 11:19:14;;;;;;;9.20;8.80;;;;;;;15.33;76.56;92309.84;5109293;28;20180;-72
2022/11/19 11:21:42;;;;;;;9.13;8.37;;;;;;;14.80;79.56;92285.09;5104775;28;20212;-71
2022/11/19 11:24:09;;;;;;;10.83;10.17;;;;;;;15.25;78.79;92302.00;5108035;28;20168;-73
2022/11/19 11:26:36;;;;;;;9.10;8.60;;;;;;;15.41;79.05;92300.44;5105415;28;20214;-74
2022/11/19 11:29:11;;;;;;;9.63;9.00;;;;;;;15.30;79.10;92312.38;5108385;28;20196;-74
2022/11/19 11:31:46;;;;;;;9.20;8.70;;;;;;;15.60;78.62;92306.09;5110049;28;20207;-73
2022/11/19 11:34:34;;;;;;;9.47;8.87;;;;;;;15.63;79.70;92316.75;5110115;28;20247;-72
2022/11/19 11:37:03;;;;;;;12.03;8.93;;;;;;;15.59;81.14;92315.84;5109528;28;20207;-73
2022/11/19 11:39:29;;;;;;;10.23;9.43;;;;;;;15.94;79.43;92311.19;5109940;28;20184;-71
2022/11/19 11:41:57;;;;;;;10.33;9.63;;;;;;;15.54;84.13;92302.09;5109740;28;20184;-70
2022/11/19 11:44:25;;;;;;;9.87;9.17;;;;;;;15.71;79.91;92286.22;5109166;28;20176;-71
2022/11/19 11:46:55;;;;;;;8.87;8.27;;;;;;;15.91;80.39;92299.44;5111393;28;20191;-67
2022/11/19 11:49:31;;;;;;;10.40;9.50;;;;;;;16.13;77.00;92297.59;5111094;28;20217;-68
2022/11/19 11:52:15;;;;;;;10.20;9.50;;;;;;;16.02;77.30;92298.00;5110297;28;20175;-67